Latest Weather Observations for Laverton

IDV60801

Issued at 10:52 am EDT Monday 18 February 2019 (issued every 10 minutes, with the page automatically refreshed every 10 minutes)

About weather observations | Map of weather stations | Latest weather observations for VIC | Other Formats
Station Details ID: 087031 Name: LAVERTON RAAF Lat: -37.86 Lon: 144.76 Height: 20.1 m
Data from the previous 72 hours. | See also: Recent months at Laverton
Date/Time
EDT
Temp
°C
App
Temp
°C
Dew
Point
°C
Rel
Hum
%
Delta-T
°C
Wind Press
QNH
hPa
Press
MSL
hPa
Rain since
9am
mm
Dir  Spd
km/h
Gust
km/h
Spd
kts
Gust
kts
18/10:30am 20.3 17.8 13.5 65 3.9 WSW 19 28 10 15 1008.6 1008.6 0.0
18/10:00am 19.9 17.2 13.4 66 3.7 WSW 20 30 11 16 1008.0 1008.0 0.0
18/09:30am 19.4 15.4 12.9 66 3.7 WSW 26 37 14 20 1007.6 1007.6 0.0
18/09:00am 19.3 15.6 12.8 66 3.7 SW 24 33 13 18 1007.1 1007.1 0.0
18/08:30am 19.1 15.4 12.8 67 3.5 WSW 24 39 13 21 1006.4 1006.4 0.0
18/08:00am 19.6 15.9 12.6 64 3.9 WSW 24 35 13 19 1005.9 1005.9 0.0
18/07:30am 19.8 16.0 12.3 62 4.2 WSW 24 35 13 19 1005.5 1005.5 0.0
18/07:00am 21.0 17.2 11.3 54 5.4 WSW 22 32 12 17 1004.8 1004.8 0.0
18/06:30am 20.8 20.0 11.7 56 5.1 NNE 7 11 4 6 1003.4 1003.4 0.0
18/06:00am 20.5 18.4 12.5 60 4.5 NNE 15 20 8 11 1003.2 1003.2 0.0
18/05:30am 20.0 18.4 12.7 63 4.1 NE 13 17 7 9 1003.6 1003.6 0.0
18/05:00am 19.7 17.9 13.4 67 3.6 NE 15 20 8 11 1004.1 1004.1 0.0
18/04:30am 19.4 18.1 13.8 70 3.2 NNE 13 19 7 10 1004.8 1004.8 0.0
18/04:00am 19.7 18.1 13.9 69 3.3 NNE 15 19 8 10 1005.2 1005.2 0.0
18/03:30am 19.0 18.7 14.3 74 2.7 NE 9 13 5 7 1005.8 1005.8 0.0
18/03:00am 19.1 18.8 14.4 74 2.7 NNE 9 11 5 6 1006.4 1006.4 0.0
18/02:30am 19.2 19.6 14.7 75 2.6 SSW 6 7 3 4 1007.2 1007.2 0.0
18/02:00am 19.6 18.8 15.0 75 2.7 SW 13 20 7 11 1007.7 1007.7 0.0
18/01:30am 19.7 18.0 15.8 78 2.3 SW 19 26 10 14 1007.8 1007.8 0.0
18/01:00am 19.8 16.6 15.4 76 2.6 SW 26 39 14 21 1007.8 1007.8 0.0
18/12:54am 20.0 16.8 15.4 75 2.7 SW 26 39 14 21 1007.9 1007.9 0.0
18/12:30am 20.7 19.3 10.8 53 5.4 SW 9 13 5 7 1007.1 1007.1 0.0
18/12:00am 19.6 18.4 10.3 55 5.0 NW 7 9 4 5 1007.1 1007.1 0.0
 
Date/Time
EDT
Temp
°C
App
Temp
°C
Dew
Point
°C
Rel
Hum
%
Delta-T
°C
Wind Press
QNH
hPa
Press
MSL
hPa
Rain since
9am
mm
Dir  Spd
km/h
Gust
km/h
Spd
kts
Gust
kts
17/11:30pm 20.7 18.7 10.2 51 5.7 WNW 11 13 6 7 1007.3 1007.3 0.0
17/11:00pm 20.9 19.9 11.0 53 5.5 ENE 7 9 4 5 1007.5 1007.5 0.0
17/10:30pm 22.1 20.8 11.2 50 6.0 ENE 9 11 5 6 1008.0 1008.0 0.0
17/10:00pm 22.2 21.7 12.2 53 5.7 ENE 6 7 3 4 1007.8 1007.8 0.0
17/09:30pm 22.8 21.7 12.1 51 6.1 ENE 9 9 5 5 1007.7 1007.7 0.0
17/09:00pm 22.9 22.4 12.5 52 5.9 E 7 7 4 4 1007.7 1007.7 0.0
17/08:30pm 23.4 22.8 12.4 50 6.3 E 7 11 4 6 1007.8 1007.8 0.0
17/08:00pm 24.6 23.7 11.5 44 7.4 ESE 7 9 4 5 1008.0 1008.0 0.0
17/07:30pm 25.2 24.1 10.6 40 8.1 E 7 11 4 6 1008.2 1008.2 0.0
17/07:00pm 25.5 23.5 8.5 34 9.2 SE 9 13 5 7 1008.3 1008.3 0.0
17/06:30pm 26.1 23.3 8.6 33 9.5 SE 13 17 7 9 1008.5 1008.5 0.0
17/06:00pm 26.4 24.2 9.3 34 9.4 ESE 11 17 6 9 1008.9 1008.9 0.0
17/05:30pm 26.0 23.4 9.4 35 9.1 ESE 13 20 7 11 1009.0 1009.0 0.0
17/05:00pm 27.0 23.6 10.7 36 9.2 ESE 19 24 10 13 1009.2 1009.2 0.0
17/04:30pm 26.7 24.0 11.6 39 8.6 ESE 17 26 9 14 1009.6 1009.6 0.0
17/04:00pm 25.7 23.6 14.8 51 6.5 ESE 19 24 10 13 1009.9 1009.9 0.0
17/03:30pm 25.3 22.6 13.5 48 6.9 SSE 20 28 11 15 1010.4 1010.4 0.0
17/03:00pm 26.6 24.1 11.1 38 8.8 SSE 15 24 8 13 1010.9 1010.9 0.0
17/02:30pm 25.9 24.6 13.7 47 7.2 SSE 13 19 7 10 1011.3 1011.3 0.0
17/02:00pm 25.6 24.6 15.6 54 6.1 SE 15 19 8 10 1011.4 1011.4 0.0
17/01:30pm 26.0 24.8 14.1 47 7.1 SE 13 17 7 9 1011.9 1011.8 0.0
17/01:00pm 26.3 24.4 13.1 44 7.7 SSE 15 20 8 11 1012.0 1011.9 0.0
17/12:30pm 26.5 26.2 15.5 50 6.7 SE 11 17 6 9 1012.3 1012.2 0.0
17/12:00pm 26.0 25.4 15.7 53 6.3 SSE 13 17 7 9 1012.5 1012.4 0.0
17/11:30am 25.1 25.3 14.6 52 6.3 ESE 7 13 4 7 1012.6 1012.5 0.0
17/11:00am 24.6 24.8 14.1 52 6.2 ESE 6 9 3 5 1012.6 1012.5 0.0
17/10:30am 23.3 23.5 14.6 58 5.1 S 7 13 4 7 1012.8 1012.7 0.0
17/10:00am 21.9 22.2 14.5 63 4.3 ESE 6 9 3 5 1012.7 1012.6 0.0
17/09:30am 20.5 20.7 14.2 67 3.7 ENE 6 9 3 5 1012.8 1012.7 0.0
17/09:00am 19.2 19.3 14.5 74 2.7 NE 7 9 4 5 1012.8 1012.7 0.0
17/08:30am 17.7 17.9 14.2 80 2.0 WSW 6 7 3 4 1013.0 1012.9 0.0
17/08:00am 15.5 16.9 14.5 94 0.6 CALM 0 2 0 1 1012.9 1012.8 0.0
17/07:30am 13.1 12.6 12.8 98 0.2 WSW 7 9 4 5 1013.0 1012.9 0.0
17/07:00am 12.9 12.4 12.6 98 0.2 SW 7 9 4 5 1012.9 1012.8 0.0
17/06:30am 13.4 13.0 12.9 97 0.3 SW 7 9 4 5 1012.8 1012.7 0.0
17/06:00am 13.6 13.9 13.4 99 0.1 SW 4 6 2 3 1012.6 1012.5 0.0
17/05:30am 13.7 13.6 13.2 97 0.3 SW 6 7 3 4 1012.4 1012.3 0.0
17/05:00am 13.8 13.6 12.9 94 0.5 SW 6 7 3 4 1012.4 1012.3 0.0
17/04:30am 14.4 14.1 13.4 94 0.6 SW 7 7 4 4 1012.9 1012.8 0.0
17/04:00am 14.6 14.2 13.1 91 0.8 SW 7 9 4 5 1013.1 1013.0 0.0
17/03:30am 14.9 14.7 13.6 92 0.7 SW 7 9 4 5 1013.6 1013.5 0.0
17/03:00am 14.9 14.7 13.1 89 1.0 SW 6 6 3 3 1013.8 1013.7 0.0
17/02:30am 16.3 16.3 13.6 84 1.5 SW 6 7 3 4 1014.3 1014.2 0.0
17/02:00am 17.1 17.1 13.6 80 2.0 SW 6 7 3 4 1014.7 1014.6 0.0
17/01:30am 17.2 17.2 13.7 80 2.0 SW 6 7 3 4 1015.3 1015.2 0.0
17/01:00am 17.2 16.7 13.7 80 2.0 SW 9 9 5 5 1015.6 1015.5 0.0
17/12:30am 17.5 17.5 14.2 81 1.9 SW 7 9 4 5 1015.9 1015.8 0.0
17/12:00am 17.3 17.2 14.0 81 1.9 SW 7 9 4 5 1016.2 1016.1 0.0
 
Date/Time
EDT
Temp
°C
App
Temp
°C
Dew
Point
°C
Rel
Hum
%
Delta-T
°C
Wind Press
QNH
hPa
Press
MSL
hPa
Rain since
9am
mm
Dir  Spd
km/h
Gust
km/h
Spd
kts
Gust
kts
16/11:30pm 17.2 17.0 13.7 80 2.0 SSW 7 9 4 5 1016.7 1016.6 0.0
16/11:00pm 17.4 16.9 13.7 79 2.1 S 9 11 5 6 1017.0 1016.9 0.0
16/10:30pm 17.9 17.0 13.8 77 2.3 S 11 15 6 8 1017.1 1017.0 0.0
16/10:00pm 18.2 17.0 13.9 76 2.5 S 13 19 7 10 1017.2 1017.1 0.0
16/09:30pm 18.4 16.5 14.3 77 2.4 S 17 22 9 12 1017.2 1017.1 0.0
16/09:00pm 18.4 16.5 14.3 77 2.4 S 17 22 9 12 1016.8 1016.7 0.0
16/08:30pm 18.7 16.5 14.4 76 2.5 S 19 28 10 15 1016.7 1016.6 0.0
16/08:00pm 19.0 16.6 14.5 75 2.6 S 20 28 11 15 1016.5 1016.4 0.0
16/07:30pm 19.3 17.0 14.6 74 2.7 S 20 28 11 15 1016.2 1016.1 0.0
16/07:00pm 19.6 16.7 15.0 75 2.7 S 24 35 13 19 1016.0 1015.9 0.0
16/06:30pm 20.4 17.7 14.7 70 3.3 S 22 30 12 16 1015.7 1015.6 0.0
16/06:00pm 21.3 19.3 14.9 67 3.8 S 19 28 10 15 1015.9 1015.8 0.0
16/05:30pm 22.3 19.3 14.7 62 4.5 S 24 35 13 19 1015.8 1015.7 0.0
16/05:00pm 21.6 18.3 15.0 66 3.9 S 26 35 14 19 1015.8 1015.7 0.0
16/04:30pm 21.3 19.0 14.7 66 3.9 SSE 20 28 11 15 1015.7 1015.6 0.0
16/04:00pm 21.6 18.6 14.7 65 4.1 SSE 24 33 13 18 1015.9 1015.8 0.0
16/03:30pm 23.2 20.2 14.7 58 5.0 SSE 24 35 13 19 1015.9 1015.8 0.0
16/03:00pm 22.7 20.3 15.5 64 4.3 SSE 22 30 12 16 1016.2 1016.1 0.0
16/02:30pm 22.9 20.8 15.2 62 4.6 SSE 20 28 11 15 1016.7 1016.6 0.0
16/02:00pm 23.4 21.4 14.9 59 5.1 S 19 28 10 15 1017.0 1016.9 0.0
16/01:30pm 23.3 21.2 15.1 60 4.9 SSE 20 33 11 18 1017.1 1017.0 0.0
16/01:00pm 23.1 21.1 14.9 60 4.9 SE 19 26 10 14 1017.4 1017.3 0.0
16/12:30pm 23.0 21.8 15.1 61 4.7 SE 15 20 8 11 1017.8 1017.7 0.0
16/12:00pm 23.0 23.0 15.1 61 4.7 SSW 9 19 5 10 1018.2 1018.1 0.0
16/11:30am 22.5 22.4 13.8 58 5.1 ESE 7 13 4 7 1018.5 1018.4 0.0
16/11:00am 21.2 20.8 14.1 64 4.1 S 9 17 5 9 1018.9 1018.8 0.0
16/10:30am 20.2 19.9 14.3 69 3.4 WNW 9 13 5 7 1019.0 1018.9 0.0
16/10:00am 19.3 19.0 14.3 73 2.9 WNW 9 13 5 7 1019.3 1019.2 0.0
16/09:30am 18.5 18.4 14.0 75 2.6 W 7 13 4 7 1019.4 1019.3 0.0
16/09:00am 18.2 18.2 14.3 78 2.2 NW 7 11 4 6 1019.4 1019.3 0.0
16/08:30am 17.8 17.4 14.1 79 2.1 NNW 9 13 5 7 1019.2 1019.1 0.0
16/08:00am 17.6 17.2 14.1 80 2.0 NW 9 13 5 7 1019.1 1019.0 0.0
16/07:30am 17.5 17.2 14.4 82 1.8 NW 9 11 5 6 1018.9 1018.8 0.0
16/07:00am 17.2 17.3 14.5 84 1.5 NW 7 11 4 6 1018.7 1018.6 0.0
16/06:30am 16.9 16.6 14.4 85 1.4 NW 9 11 5 6 1018.6 1018.5 0.0
16/06:00am 16.8 16.5 14.4 86 1.4 NW 9 11 5 6 1018.7 1018.6 0.0
16/05:30am 16.7 16.4 14.3 86 1.4 WNW 9 13 5 7 1018.9 1018.8 0.0
16/05:00am 16.7 16.3 14.2 85 1.4 W 9 11 5 6 1019.0 1018.9 0.0
16/04:30am 16.8 16.0 14.1 84 1.5 W 11 15 6 8 1019.3 1019.2 0.0
16/04:00am 16.7 15.9 14.0 84 1.5 W 11 15 6 8 1019.4 1019.3 0.0
16/03:30am 16.7 15.5 14.0 84 1.5 W 13 17 7 9 1019.5 1019.4 0.0
16/03:00am 16.5 15.6 13.8 84 1.5 W 11 15 6 8 1019.6 1019.5 0.0
16/02:30am 16.8 15.6 13.9 83 1.6 W 13 17 7 9 1019.9 1019.8 0.0
16/02:00am 17.0 16.2 13.9 82 1.8 W 11 15 6 8 1020.2 1020.1 0.0
16/01:30am 16.7 16.2 13.8 83 1.6 W 9 13 5 7 1020.3 1020.2 0.0
16/01:00am 16.7 15.8 13.8 83 1.6 WSW 11 17 6 9 1020.8 1020.7 0.0
16/12:30am 17.1 16.7 14.2 83 1.7 SSW 9 11 5 6 1020.8 1020.7 0.0
16/12:00am 17.1 17.1 14.2 83 1.7 S 7 9 4 5 1021.1 1021.0 0.0
 
Date/Time
EDT
Temp
°C
App
Temp
°C
Dew
Point
°C
Rel
Hum
%
Delta-T
°C
Wind Press
QNH
hPa
Press
MSL
hPa
Rain since
9am
mm
Dir  Spd
km/h
Gust
km/h
Spd
kts
Gust
kts
15/11:30pm 17.2 16.8 14.1 82 1.8 S 9 11 5 6 1021.4 1021.3 0.0
15/11:00pm 17.4 16.6 13.9 80 2.0 SSE 11 15 6 8 1021.7 1021.6 0.0
15/10:30pm 17.5 16.6 13.6 78 2.2 SSE 11 17 6 9 1021.9 1021.8 0.0
15/10:00pm 17.7 16.0 13.6 77 2.3 SSE 15 20 8 11 1022.1 1022.0 0.0
15/09:30pm 17.9 16.6 13.6 76 2.4 SSE 13 19 7 10 1022.0 1021.9 0.0
15/09:00pm 18.1 16.3 13.4 74 2.7 SSE 15 20 8 11 1021.8 1021.7 0.0
15/08:30pm 18.3 16.6 13.6 74 2.7 SSE 15 20 8 11 1021.5 1021.4 0.0
15/08:00pm 18.6 16.5 13.7 73 2.8 S 17 26 9 14 1021.3 1021.2 0.0
15/07:30pm 18.9 16.4 13.5 71 3.1 S 19 28 10 15 1021.3 1021.2 0.0
15/07:00pm 19.9 16.5 13.8 68 3.5 S 24 37 13 20 1021.1 1021.0 0.0
15/06:30pm 20.1 16.1 14.0 68 3.5 S 28 37 15 20 1021.2 1021.1 0.0
15/06:00pm 21.1 17.6 14.5 66 3.9 S 26 35 14 19 1020.9 1020.8 0.0
15/05:30pm 20.4 16.8 14.1 67 3.6 S 26 37 14 20 1021.2 1021.1 0.0
15/05:00pm 21.4 17.8 14.3 64 4.1 S 26 32 14 17 1021.2 1021.1 0.0
15/04:30pm 21.4 18.0 13.8 62 4.4 S 24 30 13 16 1021.3 1021.2 0.0
15/04:00pm 21.8 18.9 13.9 61 4.6 S 22 32 12 17 1021.6 1021.5 0.0
15/03:30pm 21.6 19.1 14.0 62 4.4 SSE 20 28 11 15 1022.0 1021.9 0.0
15/03:00pm 21.8 19.5 14.2 62 4.4 SSE 19 30 10 16 1022.4 1022.3 0.0
15/02:30pm 22.1 19.8 14.2 61 4.6 SSE 19 28 10 15 1022.5 1022.4 0.0
15/02:00pm 22.0 20.0 13.9 60 4.7 SSE 17 22 9 12 1022.8 1022.7 0.0
15/01:30pm 21.6 19.4 13.2 59 4.8 SE 17 24 9 13 1022.9 1022.8 0.0
15/01:00pm 22.1 20.0 13.5 58 5.0 SSE 17 26 9 14 1023.1 1023.0 0.0
15/12:30pm 20.9 19.8 13.1 61 4.5 S 11 22 6 12 1023.5 1023.4 0.0
15/12:00pm 20.0 19.1 13.7 67 3.6 S 11 15 6 8 1024.1 1024.0 0.0
15/11:30am 18.9 18.7 13.5 71 3.1 E 7 13 4 7 1024.3 1024.2 0.0
15/11:00am 18.5 18.9 13.6 73 2.8 WSW 4 11 2 6 1024.3 1024.2 0.0

Other Formats:

Comma delimited format used in spreadsheet applications
http://www.bom.gov.au/fwo/IDV60801/IDV60801.94865.axf

JavaScript Object Notation format (JSON) in row-major order
http://www.bom.gov.au/fwo/IDV60801/IDV60801.94865.json